Kezdőlap
METAR-TAF:

METAR-TAF

Repülőterek :

Recife, Pernambuco, Brazília

földrajzi szélesség: 08-08S, földrajzi hosszúság: 034-55W, magasság: 19 m

Jelenlegi meteorológiai megfigyelések

A jelentés 30 perccel ezelõtt készült, 21:00 UTC
Déli szél 12 kt
Hőmérséklet 25°C
Páratartalom 69%
Légköri nyomás 1015 hPa
Látótávolság 10 km, vagy több
felhőtlen 1500 m magasságban, és nincs gomolyfelhõ

METAR: SBRF 192100Z 17012KT CAVOK 25/19 Q1015

Idő: 18:30 (21:30 UTC)

Előrejelzés

A jelentés 6 órával és 30 perccel ezelõtt készült, 15:00 UTC
Az előrejelzés 19-én 18 óra UTC és 20-én 18 óra UTC között érvényes
Dél-délkeleti szél 12 kt
Látótávolság: 8000 m
Szórványos felhőzet 2000 lábon
Valószínűség 30% :
20-én 02 óra UTC és 20-én 05 óra UTC között ideiglenes
Látótávolság: 6000 m
Szakadozott felhőzet 1700 lábon
záporok

TAF: SBRF 191500Z 1918/2018 15012KT 8000 SCT020 TN23/2008Z TX28/2015Z PROB30 TEMPO 2002/2005 6000 SHRA BKN017 RMK PCH

Meteorológiai megfigyelések és előrejelzések több, mint 4000 repülőtéren (METAR és TAF jelentéseket).

A térképen piros és sárga pontok jelzik az elérhető meteorológiai állomásokat.

Mozgassa az egeret a pont fölött, hogy megjelenjen az állomás neve.

Azután kattintson az időjárási megfigyelések és előrejelzések megtekintéséhez.

A térkép megváltoztatása: kattintson a fekete keresztel jelölt zöld gombra ráközelítéshez, a vonallal jelölt zöld gombra távolításhoz, vagy a zöld nyilakra a szomszédos térképek eléréséhez.


METAR-TAF: